Time;durP1;ratioP1;P1;durP2;ratioP2;P2;SDS_P1;SDS_P2;PMS_P1;PMS_P2;Temp;Humidity;BMP_temperature;BMP_pressure;BME280_temperature;BME280_humidity;BME280_pressure;Samples;Min_cycle;Max_cycle;Signal;HPM_P1;HPM_P2
2023/10/09 00:02:09;;;;;;;;;;;;;;;17.10;45.11;94354.53;4954516;28;19922;-71
2023/10/09 00:04:38;;;;;;;;;;;;;;;16.87;45.60;94356.16;4956765;28;20295;-71
2023/10/09 00:07:04;;;;;;;;;;;;;;;16.98;45.42;94354.56;4955559;28;19932;-71
2023/10/09 00:09:32;;;;;;;;;;;;;;;17.16;45.33;94358.56;4955938;28;19910;-70
2023/10/09 00:11:58;;;;;;;;;;;;;;;17.13;45.17;94353.88;4956928;28;19982;-71
2023/10/09 00:14:26;;;;;;;;;;;;;;;17.00;45.43;94360.41;4958341;28;19922;-70
2023/10/09 00:19:36;;;;;;;;;;;;;;;17.10;45.15;94357.25;4961684;28;19964;-70
2023/10/09 00:22:09;;;;;;;;;;;;;;;16.97;45.55;94355.69;4957476;28;20000;-71
2023/10/09 00:24:35;;;;;;;;;;;;;;;17.20;44.91;94358.69;4957794;28;20036;-70
2023/10/09 00:27:12;;;;;;;;;;;;;;;17.22;44.86;94369.09;4952430;28;20519;-71
2023/10/09 00:29:44;;;;;;;;;;;;;;;17.22;44.78;94363.69;4955345;28;19964;-70
2023/10/09 00:32:22;;;;;;;;;;;;;;;17.17;44.68;94354.75;4953084;28;19925;-72
2023/10/09 00:34:50;;;;;;;;;;;;;;;17.26;44.81;94343.09;4954612;28;19925;-71
2023/10/09 00:37:23;;;;;;;;;;;;;;;17.13;44.65;94351.19;4957821;28;19925;-71
2023/10/09 00:39:55;;;;;;;;;;;;;;;17.07;44.88;94349.84;4954928;28;19994;-71
2023/10/09 00:42:32;;;;;;;;;;;;;;;17.17;44.75;94354.75;4962395;28;19922;-71
2023/10/09 00:45:04;;;;;;;;;;;;;;;17.31;44.27;94361.66;4956910;28;19922;-71
2023/10/09 00:47:35;;;;;;;;;;;;;;;17.51;43.97;94352.59;4955589;28;20382;-71
2023/10/09 00:50:20;;;;;;;;;;;;;;;17.50;43.97;94345.69;4956069;28;19925;-71
2023/10/09 00:53:01;;;;;;;;;;;;;;;17.65;43.67;94354.91;4956386;28;20447;-71
2023/10/09 00:55:45;;;;;;;;;;;;;;;17.60;43.44;94366.69;4955301;28;19922;-71
2023/10/09 00:58:14;;;;;;;;;;;;;;;17.35;43.65;94376.00;4956713;28;19999;-70
2023/10/09 01:11:10;;;;;;;;;;;;;;;17.30;43.40;94390.47;4959235;28;19960;-69
2023/10/09 01:14:25;;;;;;;;;;;;;;;17.22;43.80;94398.66;4955009;28;20376;-71
2023/10/09 01:16:26;;;;;;;;;;;;;;;17.19;43.48;94392.06;4946457;28;20182;-70
2023/10/09 01:18:59;;;;;;;;;;;;;;;17.31;43.15;94402.75;4955430;28;19941;-71
2023/10/09 01:21:26;;;;;;;;;;;;;;;17.03;43.79;94402.69;4964164;28;20393;-70
2023/10/09 01:26:32;;;;;;;;;;;;;;;16.82;44.04;94412.03;4960040;28;19929;-70
2023/10/09 01:28:59;;;;;;;;;;;;;;;16.75;44.05;94417.97;4954727;28;19918;-72
2023/10/09 01:31:37;;;;;;;;;;;;;;;16.70;43.97;94426.25;4956112;28;19921;-71
2023/10/09 01:34:04;;;;;;;;;;;;;;;16.28;44.57;94426.41;4962739;28;19922;-71
2023/10/09 01:36:32;;;;;;;;;;;;;;;16.15;44.95;94414.09;4952023;28;19960;-70
2023/10/09 01:38:59;;;;;;;;;;;;;;;15.89;44.93;94408.22;4954010;28;19997;-71
2023/10/09 01:41:24;;;;;;;;;;;;;;;15.73;45.41;94404.63;4955654;28;19969;-71
2023/10/09 01:43:55;;;;;;;;;;;;;;;15.82;45.25;94397.28;4956565;28;20049;-70
2023/10/09 01:46:22;;;;;;;;;;;;;;;15.69;45.08;94417.13;4955160;28;20394;-70
2023/10/09 01:48:47;;;;;;;;;;;;;;;15.38;45.59;94426.34;4955675;28;19914;-70
2023/10/09 01:51:14;;;;;;;;;;;;;;;15.30;45.82;94431.78;4951797;28;19921;-72
2023/10/09 01:53:42;;;;;;;;;;;;;;;15.14;46.50;94447.66;4955718;28;19929;-71
2023/10/09 01:56:20;;;;;;;;;;;;;;;15.46;45.68;94454.22;4953499;28;19922;-70
2023/10/09 01:58:46;;;;;;;;;;;;;;;15.69;45.44;94452.00;4955200;28;19997;-70
2023/10/09 02:01:12;;;;;;;;;;;;;;;16.02;44.77;94450.09;4953627;28;20081;-71
2023/10/09 02:03:38;;;;;;;;;;;;;;;16.12;43.96;94443.50;4954254;28;20373;-71
2023/10/09 02:06:05;;;;;;;;;;;;;;;15.82;44.56;94456.28;4956897;28;19929;-71
2023/10/09 02:08:35;;;;;;;;;;;;;;;16.10;44.14;94467.97;4953353;28;19924;-71
2023/10/09 02:11:02;;;;;;;;;;;;;;;16.15;43.54;94459.72;4956389;28;19922;-71
2023/10/09 02:13:34;;;;;;;;;;;;;;;16.13;43.70;94456.59;4956278;28;19925;-71
2023/10/09 02:16:13;;;;;;;;;;;;;;;16.14;43.88;94458.16;4954347;28;20301;-70
2023/10/09 02:18:52;;;;;;;;;;;;;;;15.99;43.53;94456.09;4959484;28;19972;-70
2023/10/09 02:21:28;;;;;;;;;;;;;;;16.33;43.12;94466.50;4956197;28;19918;-71
2023/10/09 02:23:56;;;;;;;;;;;;;;;16.16;42.69;94482.75;4957652;28;19941;-71
2023/10/09 02:26:26;;;;;;;;;;;;;;;15.98;42.58;94485.97;4954969;28;19930;-70
2023/10/09 02:28:58;;;;;;;;;;;;;;;16.00;43.02;94492.53;4951010;28;20447;-71
2023/10/09 02:31:26;;;;;;;;;;;;;;;16.28;42.15;94493.50;4955757;28;19918;-71
2023/10/09 02:33:54;;;;;;;;;;;;;;;16.21;41.87;94495.97;4954815;28;19918;-71
2023/10/09 02:36:20;;;;;;;;;;;;;;;16.21;41.92;94495.19;4953746;28;20476;-71
2023/10/09 02:38:48;;;;;;;;;;;;;;;16.31;41.82;94490.22;4956141;28;20329;-71
2023/10/09 02:43:46;;;;;;;;;;;;;;;16.07;42.11;94489.34;4956431;28;19918;-71
2023/10/09 02:46:18;;;;;;;;;;;;;;;15.55;42.59;94467.56;4951399;28;19929;-71
2023/10/09 02:48:53;;;;;;;;;;;;;;;15.25;43.41;94480.22;4955507;28;19914;-70
2023/10/09 02:52:06;;;;;;;;;;;;;;;15.16;43.71;94482.16;4953642;28;19921;-71
2023/10/09 02:54:17;;;;;;;;;;;;;;;14.99;44.01;94488.41;4960036;28;19922;-71
2023/10/09 02:56:43;;;;;;;;;;;;;;;15.06;44.02;94498.63;4959187;28;19940;-71
2023/10/09 02:59:09;;;;;;;;;;;;;;;15.08;44.00;94523.19;4956225;28;20453;-70
2023/10/09 03:01:34;;;;;;;;;;;;;;;15.12;43.94;94519.53;4957414;28;19922;-70
2023/10/09 03:04:02;;;;;;;;;;;;;;;15.11;43.82;94512.59;4956433;28;19922;-70
2023/10/09 03:06:30;;;;;;;;;;;;;;;15.23;43.61;94509.22;4957834;28;19918;-70
2023/10/09 03:08:56;;;;;;;;;;;;;;;15.34;43.53;94526.50;4953527;28;19987;-71
2023/10/09 03:11:23;;;;;;;;;;;;;;;15.45;43.13;94517.75;4957169;28;20449;-70
2023/10/09 03:13:48;;;;;;;;;;;;;;;15.49;42.99;94511.75;4956280;28;19925;-70
2023/10/09 03:16:20;;;;;;;;;;;;;;;15.60;42.82;94511.03;4955051;28;20247;-71
2023/10/09 03:18:55;;;;;;;;;;;;;;;15.32;43.14;94524.13;4956790;28;20096;-72
2023/10/09 03:21:21;;;;;;;;;;;;;;;15.38;43.16;94520.16;4958424;28;20382;-71
2023/10/09 03:23:50;;;;;;;;;;;;;;;15.41;42.83;94510.66;4954739;28;19928;-70
2023/10/09 03:26:17;;;;;;;;;;;;;;;14.87;44.13;94521.22;4959316;28;20277;-70
2023/10/09 03:28:43;;;;;;;;;;;;;;;15.18;43.76;94528.97;4955119;28;19983;-70
2023/10/09 03:31:10;;;;;;;;;;;;;;;15.31;43.33;94535.97;4956182;28;20033;-71
2023/10/09 03:33:35;;;;;;;;;;;;;;;15.08;43.22;94539.25;4957815;28;19920;-71
2023/10/09 03:36:01;;;;;;;;;;;;;;;14.97;43.57;94549.53;4958086;28;20354;-69
2023/10/09 03:38:34;;;;;;;;;;;;;;;15.03;43.32;94548.25;4953271;28;20021;-70
2023/10/09 03:41:00;;;;;;;;;;;;;;;14.71;43.84;94547.00;4959276;28;19922;-71
2023/10/09 03:43:31;;;;;;;;;;;;;;;14.65;43.88;94548.28;4953981;28;19968;-71
2023/10/09 03:45:57;;;;;;;;;;;;;;;14.67;43.76;94537.25;4962661;28;19922;-71
2023/10/09 03:48:26;;;;;;;;;;;;;;;14.47;44.17;94546.72;4959516;28;19965;-70
2023/10/09 03:51:08;;;;;;;;;;;;;;;14.79;43.70;94548.84;4958053;28;19975;-71
2023/10/09 03:53:36;;;;;;;;;;;;;;;14.97;43.18;94552.22;4955338;28;19980;-70
2023/10/09 03:56:05;;;;;;;;;;;;;;;15.02;43.16;94558.19;4955761;28;19929;-71
2023/10/09 03:58:33;;;;;;;;;;;;;;;15.10;42.63;94559.28;4957076;28;19929;-71
2023/10/09 04:00:58;;;;;;;;;;;;;;;15.18;42.28;94566.47;4955407;28;19922;-71
2023/10/09 04:03:24;;;;;;;;;;;;;;;15.25;42.12;94563.28;4958402;28;19918;-71
2023/10/09 04:05:51;;;;;;;;;;;;;;;15.21;42.13;94563.13;4955840;28;19964;-71
2023/10/09 04:08:21;;;;;;;;;;;;;;;15.35;41.98;94566.34;4955429;28;19922;-70
2023/10/09 04:10:52;;;;;;;;;;;;;;;15.29;41.27;94558.84;4956727;28;20016;-70
2023/10/09 04:13:22;;;;;;;;;;;;;;;15.16;41.47;94552.59;4954469;28;19918;-70
2023/10/09 04:15:49;;;;;;;;;;;;;;;15.11;41.71;94555.47;4958864;28;19922;-70
2023/10/09 04:18:18;;;;;;;;;;;;;;;14.99;41.54;94550.03;4958146;28;19922;-71
2023/10/09 04:21:18;;;;;;;;;;;;;;;15.19;41.44;94557.31;4955052;28;20016;-70
2023/10/09 04:26:25;;;;;;;;;;;;;;;15.35;39.87;94566.34;4959155;28;19944;-71
2023/10/09 04:28:52;;;;;;;;;;;;;;;15.16;39.91;94563.31;4954621;28;19922;-70
2023/10/09 04:31:19;;;;;;;;;;;;;;;15.15;40.33;94567.13;4956255;28;19922;-70
2023/10/09 04:33:54;;;;;;;;;;;;;;;15.31;39.89;94565.44;4955206;28;19917;-71
2023/10/09 04:38:55;;;;;;;;;;;;;;;15.41;39.39;94564.28;4956934;28;19918;-69
2023/10/09 04:41:34;;;;;;;;;;;;;;;15.19;38.83;94560.00;4954706;28;20021;-71
2023/10/09 04:50:02;;;;;;;;;;;;;;;14.70;38.29;94571.41;4949770;28;19924;-71
2023/10/09 05:00:46;;;;;;;;;;;;;;;14.75;37.46;94573.91;4962572;28;19924;-70
2023/10/09 05:06:20;;;;;;;;;;;;;;;14.52;36.79;94582.13;4957272;28;19930;-71
2023/10/09 05:08:47;;;;;;;;;;;;;;;14.41;36.63;94578.22;4954741;28;19929;-70
2023/10/09 05:11:31;;;;;;;;;;;;;;;14.46;36.95;94585.31;4954531;28;19930;-71
2023/10/09 05:14:11;;;;;;;;;;;;;;;14.48;36.61;94581.19;4955033;28;20520;-71
2023/10/09 05:16:37;;;;;;;;;;;;;;;14.62;36.30;94581.03;4956466;28;20828;-70
2023/10/09 05:19:06;;;;;;;;;;;;;;;14.69;36.17;94589.34;4953887;28;19922;-70
2023/10/09 05:21:36;;;;;;;;;;;;;;;14.77;36.03;94593.09;4955979;28;20215;-70
2023/10/09 05:35:05;;;;;;;;;;;;;;;14.58;35.87;94607.66;4956216;28;19926;-71
2023/10/09 05:37:24;;;;;;;;;;;;;;;14.68;35.60;94616.44;4952614;28;20393;-70
2023/10/09 05:42:42;;;;;;;;;;;;;;;14.65;35.90;94619.78;4958251;28;20458;-71
2023/10/09 05:48:04;;;;;;;;;;;;;;;14.12;36.01;94635.09;4953429;28;19932;-70
2023/10/09 06:08:24;;;;;;;;;;;;;;;13.78;36.74;94672.50;4958189;28;20511;-71
2023/10/09 06:11:05;;;;;;;;;;;;;;;13.64;36.98;94672.59;4960150;28;19926;-71
2023/10/09 06:13:37;;;;;;;;;;;;;;;13.83;37.00;94676.91;4951864;28;19921;-71
2023/10/09 06:19:48;;;;;;;;;;;;;;;13.78;37.19;94679.72;4952052;28;22224;-70
2023/10/09 06:24:17;;;;;;;;;;;;;;;13.86;37.38;94694.97;4950840;28;20298;-70
2023/10/09 06:27:56;;;;;;;;;;;;;;;13.43;37.23;94690.28;4953397;28;19929;-70
2023/10/09 06:29:35;;;;;;;;;;;;;;;13.53;37.54;94699.91;4947795;28;19924;-71
2023/10/09 06:45:54;;;;;;;;;;;;;;;14.03;35.89;94692.34;4961085;28;19926;-71
2023/10/09 06:59:04;;;;;;;;;;;;;;;13.55;35.61;94685.13;4958116;28;20245;-73
2023/10/09 07:04:19;;;;;;;;;;;;;;;13.51;36.13;94686.84;4965399;28;19979;-71
2023/10/09 07:06:48;;;;;;;;;;;;;;;13.61;35.51;94686.59;4960924;28;20372;-71
2023/10/09 07:15:01;;;;;;;;;;;;;;;13.07;36.01;94676.28;4955407;28;20020;-71
2023/10/09 07:17:21;;;;;;;;;;;;;;;13.33;36.07;94679.88;4955987;28;19926;-69
2023/10/09 07:22:39;;;;;;;;;;;;;;;13.81;34.85;94697.81;4955219;28;19972;-70
2023/10/09 07:25:14;;;;;;;;;;;;;;;13.93;35.29;94696.13;4955725;28;20396;-70
2023/10/09 07:33:56;;;;;;;;;;;;;;;13.42;34.18;94694.06;4959364;28;19914;-69
2023/10/09 07:35:47;;;;;;;;;;;;;;;13.35;34.57;94698.28;4964242;28;19918;-71
2023/10/09 07:38:19;;;;;;;;;;;;;;;13.27;34.88;94695.25;4956844;28;19933;-70
2023/10/09 07:43:35;;;;;;;;;;;;;;;13.38;34.38;94708.34;4960129;28;20003;-71
2023/10/09 07:48:38;;;;;;;;;;;;;;;13.47;35.15;94696.59;4961238;28;19946;-71
2023/10/09 07:51:05;;;;;;;;;;;;;;;13.49;35.20;94699.75;4955574;28;19934;-70
2023/10/09 07:53:43;;;;;;;;;;;;;;;13.63;35.19;94702.34;4957390;28;20352;-70
2023/10/09 07:56:08;;;;;;;;;;;;;;;13.39;35.93;94700.03;4954755;28;19974;-71
2023/10/09 07:58:45;;;;;;;;;;;;;;;13.24;34.27;94703.09;4951733;28;19921;-70
2023/10/09 08:01:16;;;;;;;;;;;;;;;13.31;34.76;94671.38;4956707;28;19926;-70
2023/10/09 08:03:57;;;;;;;;;;;;;;;13.70;34.93;94708.00;4946785;28;19918;-70
2023/10/09 08:06:44;;;;;;;;;;;;;;;13.66;33.63;94704.38;4956124;28;19913;-70
2023/10/09 08:17:17;;;;;;;;;;;;;;;13.72;33.20;94700.47;4956639;28;20501;-70
2023/10/09 08:20:11;;;;;;;;;;;;;;;13.65;33.69;94708.94;4957556;28;19930;-71
2023/10/09 08:22:42;;;;;;;;;;;;;;;13.74;34.16;94706.28;4955631;28;20005;-71
2023/10/09 08:25:08;;;;;;;;;;;;;;;13.94;33.54;94704.91;4956341;28;20396;-71
2023/10/09 08:33:05;;;;;;;;;;;;;;;13.92;32.86;94680.38;4957696;28;20036;-70
2023/10/09 08:35:51;;;;;;;;;;;;;;;14.07;33.36;94671.91;4953850;28;19965;-69
2023/10/09 08:38:23;;;;;;;;;;;;;;;14.13;32.34;94670.66;4954014;28;19926;-69
2023/10/09 08:40:50;;;;;;;;;;;;;;;14.30;32.47;94662.59;4956652;28;19979;-71
2023/10/09 08:43:19;;;;;;;;;;;;;;;14.28;32.38;94662.13;4955279;28;19922;-71
2023/10/09 08:45:53;;;;;;;;;;;;;;;14.32;33.09;94652.38;4950400;28;20451;-70
2023/10/09 08:48:18;;;;;;;;;;;;;;;14.34;32.91;94652.84;4955452;28;19921;-70
2023/10/09 08:50:45;;;;;;;;;;;;;;;14.50;32.74;94643.22;4951874;28;19926;-69
2023/10/09 08:53:13;;;;;;;;;;;;;;;14.29;32.01;94636.16;4956207;28;19926;-70
2023/10/09 08:55:39;;;;;;;;;;;;;;;14.41;32.79;94639.00;4956232;28;19925;-70
2023/10/09 08:58:24;;;;;;;;;;;;;;;14.53;31.83;94639.94;4958440;28;19917;-70
2023/10/09 09:00:50;;;;;;;;;;;;;;;14.64;31.74;94637.72;4957083;28;20332;-70
2023/10/09 09:03:16;;;;;;;;;;;;;;;14.78;31.99;94638.31;4954097;28;19925;-70
2023/10/09 09:05:46;;;;;;;;;;;;;;;14.96;31.01;94633.72;4956898;28;19918;-70
2023/10/09 09:08:31;;;;;;;;;;;;;;;14.94;31.19;94630.56;4955358;28;19930;-69
2023/10/09 09:11:11;;;;;;;;;;;;;;;14.84;31.21;94630.91;4955037;28;19922;-70
2023/10/09 09:13:48;;;;;;;;;;;;;;;15.03;31.56;94640.13;4957342;28;19966;-70
2023/10/09 09:16:29;;;;;;;;;;;;;;;14.78;31.40;94645.56;4956186;28;19933;-71
2023/10/09 09:21:44;;;;;;;;;;;;;;;14.98;32.16;94650.22;4957148;28;20397;-71
2023/10/09 09:26:58;;;;;;;;;;;;;;;14.67;31.02;94625.59;4955067;28;19918;-70
2023/10/09 09:29:24;;;;;;;;;;;;;;;14.81;31.66;94629.66;4959316;28;20330;-70
2023/10/09 09:32:15;;;;;;;;;;;;;;;14.76;31.37;94634.41;4955446;28;19975;-70
2023/10/09 09:34:46;;;;;;;;;;;;;;;14.75;31.90;94632.81;4954443;28;19971;-70
2023/10/09 09:37:18;;;;;;;;;;;;;;;14.71;32.36;94626.53;4956494;28;19926;-73
2023/10/09 09:39:48;;;;;;;;;;;;;;;14.67;31.96;94621.00;4956151;28;19922;-71
2023/10/09 09:42:14;;;;;;;;;;;;;;;14.55;32.06;94586.09;4955510;28;20369;-70
2023/10/09 09:44:48;;;;;;;;;;;;;;;14.60;32.32;94621.50;4953755;28;20724;-70
2023/10/09 09:47:23;;;;;;;;;;;;;;;14.49;31.62;94624.81;4956280;28;19918;-70
2023/10/09 09:49:50;;;;;;;;;;;;;;;14.65;32.06;94612.53;4955734;28;20431;-70
2023/10/09 09:52:18;;;;;;;;;;;;;;;14.79;31.62;94615.78;4956421;28;20044;-72
2023/10/09 09:54:43;;;;;;;;;;;;;;;14.98;31.53;94613.53;4952534;28;19914;-70
2023/10/09 09:57:09;;;;;;;;;;;;;;;15.16;30.74;94603.50;4953592;28;20736;-71
2023/10/09 09:59:40;;;;;;;;;;;;;;;15.21;31.07;94605.22;4954006;28;20071;-71
2023/10/09 10:02:06;;;;;;;;;;;;;;;15.16;30.41;94600.03;4953129;28;19926;-70
2023/10/09 10:04:35;;;;;;;;;;;;;;;15.37;31.00;94585.59;4954282;28;19957;-70
2023/10/09 10:07:03;;;;;;;;;;;;;;;15.15;30.39;94593.91;4955002;28;19926;-70
2023/10/09 10:09:38;;;;;;;;;;;;;;;15.21;30.48;94581.88;4955187;28;20889;-70
2023/10/09 10:12:09;;;;;;;;;;;;;;;15.21;29.71;94576.53;4956018;28;19926;-70
2023/10/09 10:14:58;;;;;;;;;;;;;;;15.22;30.29;94570.06;4961269;28;19938;-71
2023/10/09 10:17:24;;;;;;;;;;;;;;;15.37;30.18;94569.50;4957084;28;19937;-70
2023/10/09 10:20:25;;;;;;;;;;;;;;;15.54;29.89;94568.66;4957981;28;19918;-71
2023/10/09 10:22:47;;;;;;;;;;;;;;;15.62;29.38;94564.34;4957226;28;19926;-70
2023/10/09 10:25:41;;;;;;;;;;;;;;;15.71;29.48;94551.66;4958657;28;19922;-70
2023/10/09 10:28:38;;;;;;;;;;;;;;;15.96;29.29;94545.28;4950540;28;19964;-71
2023/10/09 10:31:03;;;;;;;;;;;;;;;15.91;29.15;94534.75;4951484;28;19971;-70
2023/10/09 10:33:49;;;;;;;;;;;;;;;15.85;29.53;94536.06;4958821;28;20435;-70
2023/10/09 10:36:22;;;;;;;;;;;;;;;15.99;29.18;94525.09;4959149;28;20231;-70
2023/10/09 10:39:04;;;;;;;;;;;;;;;16.17;28.79;94511.19;4959324;28;20350;-71
2023/10/09 10:41:35;;;;;;;;;;;;;;;16.25;28.41;94514.88;4957654;28;19925;-71
2023/10/09 10:44:33;;;;;;;;;;;;;;;16.33;28.79;94503.28;4959649;28;19929;-70
2023/10/09 10:46:51;;;;;;;;;;;;;;;16.54;28.84;94508.59;4957893;28;19922;-71
2023/10/09 10:49:21;;;;;;;;;;;;;;;16.72;29.08;94504.59;4957053;28;19975;-70
2023/10/09 10:51:53;;;;;;;;;;;;;;;16.79;28.14;94498.66;4958082;28;20394;-71
2023/10/09 10:56:58;;;;;;;;;;;;;;;16.72;28.36;94491.19;4957920;28;19957;-70
2023/10/09 10:59:26;;;;;;;;;;;;;;;16.94;28.58;94495.31;4956043;28;19922;-70
2023/10/09 11:18:23;;;;;;;;;;;;;;;17.27;28.15;94454.88;4955667;28;19933;-70
2023/10/09 11:21:40;;;;;;;;;;;;;;;17.38;27.83;94448.69;4958041;28;19922;-70
2023/10/09 11:26:23;;;;;;;;;;;;;;;17.68;27.91;94437.59;4958977;28;19926;-70
2023/10/09 11:32:03;;;;;;;;;;;;;;;17.89;28.00;94432.81;4971101;28;19926;-71
2023/10/09 11:34:37;;;;;;;;;;;;;;;17.92;27.16;94424.03;4955964;28;19918;-71
2023/10/09 11:37:12;;;;;;;;;;;;;;;17.85;26.59;94427.31;4954180;28;19975;-71
2023/10/09 11:39:50;;;;;;;;;;;;;;;17.64;27.22;94437.53;4956864;28;19921;-71
2023/10/09 11:42:35;;;;;;;;;;;;;;;17.59;27.11;94441.22;4956963;28;20016;-68
2023/10/09 11:45:04;;;;;;;;;;;;;;;17.66;28.00;94427.19;4954455;28;19922;-71
2023/10/09 11:47:34;;;;;;;;;;;;;;;17.77;27.62;94424.78;4958686;28;19925;-69
2023/10/09 11:54:58;;;;;;;;;;;;;;;17.91;25.58;94414.41;4956892;28;19918;-70
2023/10/09 11:57:30;;;;;;;;;;;;;;;18.13;25.67;94413.09;4959510;28;19921;-70
2023/10/09 11:59:55;;;;;;;;;;;;;;;18.30;25.61;94399.28;4958319;28;19926;-71
2023/10/09 12:02:21;;;;;;;;;;;;;;;18.44;24.92;94394.22;4954642;28;19995;-70
2023/10/09 12:04:46;;;;;;;;;;;;;;;18.60;25.10;94397.72;4958864;28;20661;-68
2023/10/09 12:07:11;;;;;;;;;;;;;;;18.61;24.65;94385.03;4955875;28;20370;-71
2023/10/09 12:09:39;;;;;;;;;;;;;;;18.65;24.53;94378.59;4955351;28;20003;-69
2023/10/09 12:12:06;;;;;;;;;;;;;;;18.71;24.29;94371.84;4955485;28;19934;-70
2023/10/09 12:14:33;;;;;;;;;;;;;;;18.81;24.23;94367.81;4957549;28;20019;-69
2023/10/09 12:17:05;;;;;;;;;;;;;;;18.87;23.70;94369.88;4954478;28;20048;-70
2023/10/09 12:19:30;;;;;;;;;;;;;;;18.90;23.33;94368.38;4954742;28;19918;-70
2023/10/09 12:21:55;;;;;;;;;;;;;;;19.04;23.59;94366.00;4953106;28;20586;-71
2023/10/09 12:24:20;;;;;;;;;;;;;;;19.01;22.77;94365.94;4956387;28;19972;-71
2023/10/09 12:26:47;;;;;;;;;;;;;;;19.09;22.92;94365.72;4958816;28;19918;-69
2023/10/09 12:29:13;;;;;;;;;;;;;;;19.07;22.25;94361.81;4956671;28;19967;-70
2023/10/09 12:31:38;;;;;;;;;;;;;;;19.06;20.88;94349.47;4954704;28;19922;-70
2023/10/09 12:34:03;;;;;;;;;;;;;;;19.05;21.25;94354.09;4958771;28;19933;-70
2023/10/09 12:36:29;;;;;;;;;;;;;;;19.03;21.41;94350.16;4957084;28;20366;-67
2023/10/09 12:38:58;;;;;;;;;;;;;;;19.18;22.49;94341.25;4952096;28;19922;-70
2023/10/09 12:41:27;;;;;;;;;;;;;;;19.10;20.64;94337.63;4953942;28;19925;-70
2023/10/09 12:43:53;;;;;;;;;;;;;;;19.09;21.14;94332.59;4954900;28;19922;-72
2023/10/09 12:46:22;;;;;;;;;;;;;;;19.23;21.44;94335.56;4953412;28;19922;-72
2023/10/09 12:48:48;;;;;;;;;;;;;;;19.25;21.03;94330.63;4956505;28;19921;-71
2023/10/09 12:51:17;;;;;;;;;;;;;;;19.32;20.96;94336.91;4956809;28;19914;-72
2023/10/09 12:53:42;;;;;;;;;;;;;;;19.37;20.88;94325.06;4955575;28;20379;-71
2023/10/09 12:56:08;;;;;;;;;;;;;;;19.44;20.91;94325.22;4956145;28;20014;-72
2023/10/09 12:58:37;;;;;;;;;;;;;;;19.51;20.69;94313.78;4953251;28;20733;-71
2023/10/09 13:01:09;;;;;;;;;;;;;;;19.62;20.57;94317.47;4953733;28;19928;-73
2023/10/09 13:03:38;;;;;;;;;;;;;;;19.62;20.18;94310.16;4961630;28;20411;-72
2023/10/09 13:06:07;;;;;;;;;;;;;;;19.58;19.94;94317.41;4950746;28;20373;-72
2023/10/09 13:08:35;;;;;;;;;;;;;;;19.53;19.95;94312.31;4951713;28;20412;-72
2023/10/09 13:11:10;;;;;;;;;;;;;;;19.47;20.20;94299.47;4954619;28;19926;-72
2023/10/09 13:13:47;;;;;;;;;;;;;;;19.58;20.10;94301.22;4953936;28;19925;-72
2023/10/09 13:16:25;;;;;;;;;;;;;;;19.58;19.47;94295.03;4955164;28;19933;-72
2023/10/09 13:18:55;;;;;;;;;;;;;;;19.56;20.01;94287.31;4964267;28;19926;-72
2023/10/09 13:21:26;;;;;;;;;;;;;;;19.53;19.85;94292.63;4954553;28;19976;-72
2023/10/09 13:23:54;;;;;;;;;;;;;;;19.58;19.78;94284.25;4952383;28;19922;-71
2023/10/09 13:26:43;;;;;;;;;;;;;;;19.65;19.90;94289.78;4956595;28;19925;-71
2023/10/09 13:29:09;;;;;;;;;;;;;;;19.78;20.16;94287.69;4957159;28;19921;-72
2023/10/09 13:31:34;;;;;;;;;;;;;;;;;;4953801;28;19976;-72
2023/10/09 13:34:00;;;;;;;;;;;;;;;20.01;20.12;94270.34;4956673;28;19925;-70
2023/10/09 13:36:33;;;;;;;;;;;;;;;20.10;19.39;94278.19;4956363;28;19948;-71
2023/10/09 13:41:58;;;;;;;;;;;;;;;20.09;19.09;94271.25;4952868;28;20306;-71
2023/10/09 13:44:29;;;;;;;;;;;;;;;20.21;19.11;94273.00;4957217;28;20398;-71
2023/10/09 13:46:56;;;;;;;;;;;;;;;20.22;19.10;94266.44;4954562;28;19918;-69
2023/10/09 13:49:22;;;;;;;;;;;;;;;20.28;19.28;94270.41;4953682;28;19926;-71
2023/10/09 13:51:49;;;;;;;;;;;;;;;20.34;18.96;94261.59;4952409;28;19921;-71
2023/10/09 13:54:28;;;;;;;;;;;;;;;20.29;18.61;94251.13;4954120;28;19914;-71
2023/10/09 13:56:57;;;;;;;;;;;;;;;20.38;18.84;94248.97;4952720;28;20280;-72
2023/10/09 13:59:28;;;;;;;;;;;;;;;20.51;19.48;94250.28;4952870;28;20040;-67
2023/10/09 14:01:54;;;;;;;;;;;;;;;20.64;20.71;94247.34;4955073;28;19968;-72
2023/10/09 14:04:20;;;;;;;;;;;;;;;20.71;19.47;94239.34;4950924;28;19961;-70
2023/10/09 14:06:45;;;;;;;;;;;;;;;20.84;18.40;94243.38;4956998;28;20000;-71
2023/10/09 14:09:27;;;;;;;;;;;;;;;20.90;19.41;94239.25;4954759;28;20555;-77
2023/10/09 14:11:53;;;;;;;;;;;;;;;21.01;19.85;94240.94;4953874;28;19926;-76
2023/10/09 14:14:24;;;;;;;;;;;;;;;21.11;19.59;94242.19;4938351;28;19933;-79
2023/10/09 14:16:57;;;;;;;;;;;;;;;21.04;20.10;94215.06;4954344;28;19918;-77
2023/10/09 14:19:22;;;;;;;;;;;;;;;21.29;20.19;94248.56;4955206;28;19926;-76
2023/10/09 14:21:49;;;;;;;;;;;;;;;21.38;20.71;94240.16;4943046;28;19961;-71
2023/10/09 14:24:19;;;;;;;;;;;;;;;21.40;19.68;94244.06;4956574;28;19914;-78
2023/10/09 14:26:51;;;;;;;;;;;;;;;21.43;19.65;94248.72;4955661;28;19918;-78
2023/10/09 14:29:17;;;;;;;;;;;;;;;21.45;19.81;94249.16;4952790;28;19922;-77
2023/10/09 14:31:42;;;;;;;;;;;;;;;21.49;18.92;94245.69;4962461;28;19926;-76
2023/10/09 14:34:09;;;;;;;;;;;;;;;21.52;20.44;94247.63;4959881;28;20421;-77
2023/10/09 14:36:34;;;;;;;;;;;;;;;21.51;19.64;94241.44;4959649;28;20333;-77
2023/10/09 14:39:00;;;;;;;;;;;;;;;21.47;20.07;94243.34;4957441;28;19945;-76
2023/10/09 14:41:27;;;;;;;;;;;;;;;21.46;20.52;94245.25;4952303;28;20341;-78
2023/10/09 14:43:52;;;;;;;;;;;;;;;21.47;21.41;94243.34;4950355;28;19924;-72
2023/10/09 14:46:23;;;;;;;;;;;;;;;21.44;20.06;94234.06;4951372;28;19930;-74
2023/10/09 14:48:48;;;;;;;;;;;;;;;21.39;21.29;94231.69;4942900;28;19918;-73
2023/10/09 14:51:14;;;;;;;;;;;;;;;21.37;20.65;94230.47;4945670;28;19995;-73
2023/10/09 14:53:40;;;;;;;;;;;;;;;21.32;20.10;94220.78;4948810;28;20486;-73
2023/10/09 14:56:09;;;;;;;;;;;;;;;21.30;20.30;94214.97;4951893;28;19924;-72
2023/10/09 14:58:34;;;;;;;;;;;;;;;21.27;21.24;94210.28;4948962;28;20263;-73
2023/10/09 15:01:15;;;;;;;;;;;;;;;21.23;21.63;94212.19;4944626;28;20406;-70
2023/10/09 15:03:41;;;;;;;;;;;;;;;21.21;21.26;94211.78;4947342;28;19922;-75
2023/10/09 15:06:10;;;;;;;;;;;;;;;21.18;21.29;94206.31;4953194;28;19920;-76
2023/10/09 15:08:36;;;;;;;;;;;;;;;20.94;21.06;94213.00;4948271;28;20386;-72
2023/10/09 15:11:01;;;;;;;;;;;;;;;20.80;20.78;94221.72;4950868;28;20041;-72
2023/10/09 15:13:28;;;;;;;;;;;;;;;20.36;20.36;94220.75;4946214;28;19929;-75
2023/10/09 15:15:54;;;;;;;;;;;;;;;19.45;20.54;94185.75;4952789;28;20019;-76
2023/10/09 15:18:21;;;;;;;;;;;;;;;19.63;20.57;94217.28;4947781;28;20397;-71
2023/10/09 15:20:47;;;;;;;;;;;;;;;19.81;21.03;94214.09;4941120;28;19922;-77
2023/10/09 15:23:12;;;;;;;;;;;;;;;19.57;20.98;94207.94;4945162;28;19961;-77
2023/10/09 15:25:39;;;;;;;;;;;;;;;19.81;21.38;94200.59;4948583;28;20530;-74
2023/10/09 15:28:05;;;;;;;;;;;;;;;19.85;21.52;94220.34;4947530;28;19933;-75
2023/10/09 15:30:31;;;;;;;;;;;;;;;19.93;22.30;94216.59;4950521;28;19918;-75
2023/10/09 15:32:57;;;;;;;;;;;;;;;20.05;23.99;94213.69;4948270;28;19921;-73
2023/10/09 15:35:22;;;;;;;;;;;;;;;20.07;23.12;94214.13;4942710;28;20301;-75
2023/10/09 15:37:48;;;;;;;;;;;;;;;20.16;23.94;94214.63;4951855;28;20390;-77
2023/10/09 15:40:18;;;;;;;;;;;;;;;20.17;23.83;94218.94;4950167;28;20017;-76
2023/10/09 15:42:49;;;;;;;;;;;;;;;20.15;24.19;94221.97;4950122;28;20405;-74
2023/10/09 15:45:14;;;;;;;;;;;;;;;20.13;24.16;94223.47;4945934;28;19914;-74
2023/10/09 15:47:40;;;;;;;;;;;;;;;20.07;24.90;94222.22;4952017;28;19960;-75
2023/10/09 15:50:09;;;;;;;;;;;;;;;20.05;25.21;94219.88;4928288;28;20113;-74
2023/10/09 15:52:34;;;;;;;;;;;;;;;20.04;24.59;94217.56;4950744;28;19922;-76
2023/10/09 15:55:00;;;;;;;;;;;;;;;20.02;24.70;94217.13;4950824;28;19925;-75
2023/10/09 15:57:26;;;;;;;;;;;;;;;20.00;24.53;94219.41;4954157;28;19922;-75
2023/10/09 15:59:51;;;;;;;;;;;;;;;19.99;24.87;94217.88;4955335;28;20310;-75
2023/10/09 16:02:18;;;;;;;;;;;;;;;19.95;24.79;94212.38;4955491;28;20570;-72
2023/10/09 16:04:44;;;;;;;;;;;;;;;19.91;25.62;94218.88;4945706;28;20840;-75